createdAt,value
2019-05-25T00:00:22.792Z,988.33
2019-05-25T00:01:22.792Z,988.34
2019-05-25T00:02:22.789Z,988.32
2019-05-25T00:03:22.789Z,988.3
2019-05-25T00:04:22.797Z,988.31
2019-05-25T00:05:22.792Z,988.3
2019-05-25T00:06:22.782Z,988.29
2019-05-25T00:07:22.796Z,988.22
2019-05-25T00:08:25.825Z,988.29
2019-05-25T00:09:22.778Z,988.22
2019-05-25T00:10:22.791Z,988.23
2019-05-25T00:11:22.780Z,988.19
2019-05-25T00:12:22.774Z,988.19
2019-05-25T00:13:22.778Z,988.11
2019-05-25T00:14:22.772Z,988.13
2019-05-25T00:15:22.777Z,988.14
2019-05-25T00:16:22.769Z,988.15
2019-05-25T00:17:22.766Z,988.14
2019-05-25T00:18:22.765Z,988.17
2019-05-25T00:19:22.800Z,988.16
2019-05-25T00:20:22.760Z,988.17
2019-05-25T00:21:22.759Z,988.14
2019-05-25T00:22:22.759Z,988.15
2019-05-25T00:23:22.755Z,988.17
2019-05-25T00:24:22.758Z,988.17
2019-05-25T00:25:22.754Z,988.14
2019-05-25T00:26:22.750Z,988.18
2019-05-25T00:27:22.749Z,988.19
2019-05-25T00:28:22.752Z,988.21
2019-05-25T00:29:22.761Z,988.23
2019-05-25T00:30:22.745Z,988.24
2019-05-25T00:31:22.741Z,988.24
2019-05-25T00:32:22.740Z,988.26
2019-05-25T00:33:22.741Z,988.28
2019-05-25T00:34:22.737Z,988.27
2019-05-25T00:35:22.738Z,988.3
2019-05-25T00:36:22.733Z,988.3
2019-05-25T00:37:22.736Z,988.33
2019-05-25T00:38:22.735Z,988.3
2019-05-25T00:39:22.740Z,988.31
2019-05-25T00:40:25.238Z,988.3
2019-05-25T00:41:22.724Z,988.32
2019-05-25T00:42:22.724Z,988.28
2019-05-25T00:43:22.721Z,988.3
2019-05-25T00:44:22.719Z,988.27
2019-05-25T00:45:22.716Z,988.3
2019-05-25T00:46:22.715Z,988.26
2019-05-25T00:47:22.714Z,988.25
2019-05-25T00:48:22.713Z,988.31
2019-05-25T00:49:22.723Z,988.26
2019-05-25T00:50:22.748Z,988.27
2019-05-25T00:51:28.977Z,988.24
2019-05-25T00:52:22.707Z,988.23
2019-05-25T00:53:22.702Z,988.19
2019-05-25T00:54:27.686Z,988.23
2019-05-25T00:55:22.704Z,988.19
2019-05-25T00:56:22.699Z,988.19
2019-05-25T00:57:22.697Z,988.18
2019-05-25T00:58:22.694Z,988.2
2019-05-25T00:59:22.692Z,988.14
2019-05-25T01:00:22.696Z,988.16
2019-05-25T01:01:24.497Z,988.17
2019-05-25T01:02:22.683Z,988.17
2019-05-25T01:03:22.694Z,988.14
2019-05-25T01:04:22.690Z,988.16
2019-05-25T01:05:22.693Z,988.15
2019-05-25T01:06:22.683Z,988.07
2019-05-25T01:07:22.677Z,988.17
2019-05-25T01:08:22.693Z,988.13
2019-05-25T01:09:22.671Z,988.09
2019-05-25T01:10:22.673Z,988.09
2019-05-25T01:11:22.667Z,988.05
2019-05-25T01:12:23.272Z,988.06
2019-05-25T01:13:22.661Z,988.03
2019-05-25T01:14:22.662Z,988.06
2019-05-25T01:15:22.665Z,988.03
2019-05-25T01:16:22.656Z,988.02
2019-05-25T01:17:22.652Z,988.04
2019-05-25T01:18:22.654Z,988.06
2019-05-25T01:19:22.655Z,988.06
2019-05-25T01:20:22.651Z,988.13
2019-05-25T01:21:22.652Z,988.13
2019-05-25T01:22:22.658Z,988.17
2019-05-25T01:23:25.683Z,988.2
2019-05-25T01:24:22.649Z,988.17
2019-05-25T01:25:22.649Z,988.2
2019-05-25T01:26:22.652Z,988.2
2019-05-25T01:27:22.652Z,988.24
2019-05-25T01:28:22.656Z,988.22
2019-05-25T01:29:22.637Z,988.23
2019-05-25T01:30:22.638Z,988.21
2019-05-25T01:31:22.634Z,988.23
2019-05-25T01:32:22.637Z,988.25
2019-05-25T01:33:22.625Z,988.23
2019-05-25T01:34:22.622Z,988.25
2019-05-25T01:35:22.622Z,988.26
2019-05-25T01:36:22.626Z,988.26
2019-05-25T01:37:22.630Z,988.25
2019-05-25T01:38:22.620Z,988.22
2019-05-25T01:39:22.650Z,988.17
2019-05-25T01:40:22.621Z,988.23
2019-05-25T01:41:22.623Z,988.24
2019-05-25T01:42:22.607Z,988.24
2019-05-25T01:43:22.613Z,988.23
2019-05-25T01:44:22.654Z,988.2
2019-05-25T01:45:22.619Z,988.2
2019-05-25T01:46:22.601Z,988.19
2019-05-25T01:47:22.600Z,988.18
2019-05-25T01:48:22.602Z,988.24
2019-05-25T01:49:22.605Z,988.22
2019-05-25T01:50:22.596Z,988.21
2019-05-25T01:51:22.637Z,988.22
2019-05-25T01:52:22.590Z,988.28
2019-05-25T01:53:22.584Z,988.31
2019-05-25T01:54:22.587Z,988.3
2019-05-25T01:55:23.997Z,988.31
2019-05-25T01:56:22.624Z,988.32
2019-05-25T01:57:22.584Z,988.29
2019-05-25T01:58:22.581Z,988.32
2019-05-25T01:59:22.574Z,988.33
2019-05-25T02:00:22.579Z,988.33
2019-05-25T02:01:22.620Z,988.32
2019-05-25T02:02:22.582Z,988.31
2019-05-25T02:03:22.569Z,988.29
2019-05-25T02:04:22.568Z,988.31
2019-05-25T02:05:22.557Z,988.29
2019-05-25T02:06:26.607Z,988.31
2019-05-25T02:07:22.552Z,988.31
2019-05-25T02:08:22.546Z,988.33
2019-05-25T02:09:22.546Z,988.36
2019-05-25T02:10:22.550Z,988.35
2019-05-25T02:11:22.542Z,988.36
2019-05-25T02:12:22.554Z,988.35
2019-05-25T02:13:22.554Z,988.39
2019-05-25T02:14:22.534Z,988.34
2019-05-25T02:15:22.532Z,988.39
2019-05-25T02:16:22.533Z,988.38
2019-05-25T02:17:22.526Z,988.36
2019-05-25T02:18:22.523Z,988.38
2019-05-25T02:19:22.520Z,988.4
2019-05-25T02:20:22.517Z,988.4
2019-05-25T02:21:22.521Z,988.33
2019-05-25T02:22:22.514Z,988.39
2019-05-25T02:23:22.511Z,988.34
2019-05-25T02:24:22.508Z,988.37
2019-05-25T02:25:22.502Z,988.34
2019-05-25T02:26:22.497Z,988.35
2019-05-25T02:27:22.501Z,988.41
2019-05-25T02:28:22.498Z,988.34
2019-05-25T02:29:22.496Z,988.32
2019-05-25T02:30:22.487Z,988.32
2019-05-25T02:31:22.499Z,988.29
2019-05-25T02:32:22.483Z,988.33
2019-05-25T02:33:22.481Z,988.29
2019-05-25T02:34:22.475Z,988.31
2019-05-25T02:35:22.474Z,988.32
2019-05-25T02:36:22.472Z,988.34
2019-05-25T02:37:22.474Z,988.33
2019-05-25T02:38:25.509Z,988.31
2019-05-25T02:39:22.467Z,988.35
2019-05-25T02:40:22.461Z,988.38
2019-05-25T02:41:22.456Z,988.42
2019-05-25T02:42:22.454Z,988.39
2019-05-25T02:43:22.460Z,988.4
2019-05-25T02:44:22.448Z,988.38
2019-05-25T02:45:22.454Z,988.45
2019-05-25T02:46:22.444Z,988.41
2019-05-25T02:47:22.446Z,988.43
2019-05-25T02:48:22.443Z,988.42
2019-05-25T02:49:28.709Z,988.42
2019-05-25T02:50:22.438Z,988.38
2019-05-25T02:51:22.431Z,988.36
2019-05-25T02:52:22.438Z,988.39
2019-05-25T02:53:22.421Z,988.37
2019-05-25T02:54:22.418Z,988.38
2019-05-25T02:55:33.487Z,988.38
2019-05-25T02:56:22.412Z,988.35
2019-05-25T02:57:22.410Z,988.34
2019-05-25T02:58:22.406Z,988.36
2019-05-25T02:59:22.402Z,988.35
2019-05-25T03:00:22.399Z,988.4
2019-05-25T03:01:22.396Z,988.39
2019-05-25T03:02:22.394Z,988.47
2019-05-25T03:03:22.388Z,988.41
2019-05-25T03:04:22.387Z,988.42
2019-05-25T03:05:22.385Z,988.42
2019-05-25T03:06:22.381Z,988.39
2019-05-25T03:07:22.384Z,988.42
2019-05-25T03:08:22.384Z,988.39
2019-05-25T03:09:22.374Z,988.4
2019-05-25T03:10:22.979Z,988.35
2019-05-25T03:11:22.376Z,988.35
2019-05-25T03:12:22.363Z,988.38
2019-05-25T03:13:22.361Z,988.37
2019-05-25T03:14:22.363Z,988.38
2019-05-25T03:15:22.354Z,988.38
2019-05-25T03:16:22.353Z,988.35
2019-05-25T03:17:22.400Z,988.36
2019-05-25T03:18:22.346Z,988.37
2019-05-25T03:19:22.357Z,988.35
2019-05-25T03:20:22.344Z,988.42
2019-05-25T03:21:25.371Z,988.35
2019-05-25T03:22:22.336Z,988.34
2019-05-25T03:23:22.332Z,988.37
2019-05-25T03:24:22.332Z,988.39
2019-05-25T03:25:22.333Z,988.39
2019-05-25T03:26:22.333Z,988.36
2019-05-25T03:27:22.371Z,988.39
2019-05-25T03:28:22.319Z,988.43
2019-05-25T03:29:22.319Z,988.41
2019-05-25T03:30:22.314Z,988.42
2019-05-25T03:31:22.331Z,988.41
2019-05-25T03:32:22.306Z,988.44
2019-05-25T03:33:22.306Z,988.46
2019-05-25T03:34:22.306Z,988.47
2019-05-25T03:35:22.331Z,988.51
2019-05-25T03:36:22.296Z,988.49
2019-05-25T03:37:22.295Z,988.52
2019-05-25T03:38:22.291Z,988.54
2019-05-25T03:39:22.306Z,988.55
2019-05-25T03:40:22.287Z,988.53
2019-05-25T03:41:22.283Z,988.56
2019-05-25T03:42:22.339Z,988.6
2019-05-25T03:43:22.278Z,988.58
2019-05-25T03:44:22.277Z,988.62
2019-05-25T03:45:22.275Z,988.61
2019-05-25T03:46:22.271Z,988.61
2019-05-25T03:47:22.319Z,988.62
2019-05-25T03:48:22.266Z,988.65
2019-05-25T03:49:22.262Z,988.65
2019-05-25T03:50:22.259Z,988.66
2019-05-25T03:51:22.257Z,988.65
2019-05-25T03:52:22.262Z,988.62
2019-05-25T03:53:23.669Z,988.61
2019-05-25T03:54:22.250Z,988.64
2019-05-25T03:55:22.250Z,988.66
2019-05-25T03:56:22.244Z,988.67
2019-05-25T03:57:22.301Z,988.67
2019-05-25T03:58:22.241Z,988.73
2019-05-25T03:59:22.239Z,988.69
2019-05-25T04:00:22.241Z,988.73
2019-05-25T04:01:22.230Z,988.7
2019-05-25T04:02:22.239Z,988.76
2019-05-25T04:03:22.227Z,988.74
2019-05-25T04:04:25.257Z,988.66
2019-05-25T04:05:22.222Z,988.7
2019-05-25T04:06:22.221Z,988.65
2019-05-25T04:07:22.225Z,988.71
2019-05-25T04:08:22.214Z,988.75
2019-05-25T04:09:22.211Z,988.75
2019-05-25T04:10:22.210Z,988.74
2019-05-25T04:11:22.208Z,988.74
2019-05-25T04:12:22.254Z,988.77
2019-05-25T04:13:22.202Z,988.74
2019-05-25T04:14:22.210Z,988.79
2019-05-25T04:15:22.195Z,988.82
2019-05-25T04:16:22.199Z,988.81
2019-05-25T04:17:22.191Z,988.84
2019-05-25T04:18:22.189Z,988.79
2019-05-25T04:19:22.187Z,988.82
2019-05-25T04:20:22.187Z,988.77
2019-05-25T04:21:22.185Z,988.79
2019-05-25T04:22:22.178Z,988.79
2019-05-25T04:23:22.176Z,988.77
2019-05-25T04:24:22.176Z,988.76
2019-05-25T04:25:22.371Z,988.82
2019-05-25T04:26:22.955Z,988.81
2019-05-25T04:27:22.270Z,988.77
2019-05-25T04:28:22.165Z,988.8
2019-05-25T04:29:22.160Z,988.79
2019-05-25T04:30:22.162Z,988.78
2019-05-25T04:31:22.176Z,988.77
2019-05-25T04:32:22.187Z,988.74
2019-05-25T04:33:22.163Z,988.74
2019-05-25T04:34:22.151Z,988.72
2019-05-25T04:35:22.151Z,988.73
2019-05-25T04:36:25.179Z,988.71
2019-05-25T04:37:22.197Z,988.72
2019-05-25T04:38:22.149Z,988.71
2019-05-25T04:39:22.145Z,988.7
2019-05-25T04:40:23.056Z,988.69
2019-05-25T04:41:22.139Z,988.75
2019-05-25T04:42:22.186Z,988.74
2019-05-25T04:43:22.137Z,988.78
2019-05-25T04:44:22.148Z,988.78
2019-05-25T04:45:22.139Z,988.84
2019-05-25T04:46:22.127Z,988.84
2019-05-25T04:47:28.395Z,988.86
2019-05-25T04:48:22.126Z,988.89
2019-05-25T04:49:22.120Z,988.91
2019-05-25T04:50:22.131Z,988.87
2019-05-25T04:51:22.118Z,988.93
2019-05-25T04:52:22.116Z,988.94
2019-05-25T04:53:22.118Z,988.93
2019-05-25T04:54:22.121Z,988.98
2019-05-25T04:55:22.111Z,988.96
2019-05-25T04:56:36.305Z,989.01
2019-05-25T04:57:22.112Z,988.97
2019-05-25T04:58:22.119Z,988.98
2019-05-25T04:59:22.104Z,989.06
2019-05-25T05:00:22.120Z,989.07
2019-05-25T05:01:22.664Z,989.03
2019-05-25T05:02:22.103Z,989.01
2019-05-25T05:03:22.102Z,989.08
2019-05-25T05:04:22.098Z,989.05
2019-05-25T05:05:22.096Z,989.01
2019-05-25T05:06:22.095Z,989.08
2019-05-25T05:07:22.092Z,989.05
2019-05-25T05:08:23.505Z,989.03
2019-05-25T05:09:22.090Z,989.02
2019-05-25T05:10:22.085Z,989.06
2019-05-25T05:11:22.092Z,989.06
2019-05-25T05:12:22.086Z,989.05
2019-05-25T05:13:22.083Z,989.06
2019-05-25T05:14:22.083Z,989.06
2019-05-25T05:15:22.085Z,989.07
2019-05-25T05:16:22.078Z,989.09
2019-05-25T05:17:22.076Z,989.1
2019-05-25T05:18:22.090Z,989.11
2019-05-25T05:19:25.111Z,989.1
2019-05-25T05:20:22.075Z,989.08
2019-05-25T05:21:22.084Z,989.03
2019-05-25T05:22:22.074Z,989.03
2019-05-25T05:23:22.077Z,989.01
2019-05-25T05:24:22.087Z,989.05
2019-05-25T05:25:22.087Z,989.02
2019-05-25T05:26:22.069Z,989.06
2019-05-25T05:27:22.066Z,989.02
2019-05-25T05:28:22.115Z,989.03
2019-05-25T05:29:22.067Z,989.05
2019-05-25T05:30:22.070Z,989.05
2019-05-25T05:31:23.684Z,989.07
2019-05-25T05:32:27.305Z,989.06
2019-05-25T05:33:22.084Z,989.08
2019-05-25T05:34:22.062Z,989.03
2019-05-25T05:35:22.063Z,989.06
2019-05-25T05:36:22.065Z,989.07
2019-05-25T05:37:22.055Z,989.04
2019-05-25T05:38:22.054Z,989.05
2019-05-25T05:39:22.071Z,989.04
2019-05-25T05:40:22.060Z,989.04
2019-05-25T05:41:22.057Z,989.05
2019-05-25T05:42:22.058Z,989.08
2019-05-25T05:43:22.102Z,989.09
2019-05-25T05:44:22.053Z,989.09
2019-05-25T05:45:22.062Z,989.16
2019-05-25T05:46:22.053Z,989.14
2019-05-25T05:47:22.054Z,989.15
2019-05-25T05:48:22.098Z,989.15
2019-05-25T05:49:22.049Z,989.16
2019-05-25T05:50:22.044Z,989.2
2019-05-25T05:51:23.461Z,989.2
2019-05-25T05:52:22.057Z,989.19
2019-05-25T05:53:22.047Z,989.16
2019-05-25T05:54:22.046Z,989.18
2019-05-25T05:55:22.042Z,989.21
2019-05-25T05:56:22.043Z,989.18
2019-05-25T05:57:22.041Z,989.15
2019-05-25T05:58:22.097Z,989.21
2019-05-25T05:59:22.045Z,989.19
2019-05-25T06:00:22.048Z,989.19
2019-05-25T06:01:22.057Z,989.22
2019-05-25T06:02:25.078Z,989.16
2019-05-25T06:03:22.047Z,989.16
2019-05-25T06:04:22.049Z,989.2
2019-05-25T06:05:22.056Z,989.26
2019-05-25T06:06:22.043Z,989.25
2019-05-25T06:07:22.062Z,989.23
2019-05-25T06:08:22.099Z,989.28
2019-05-25T06:09:22.060Z,989.26
2019-05-25T06:10:22.053Z,989.23
2019-05-25T06:11:22.053Z,989.26
2019-05-25T06:12:22.053Z,989.3
2019-05-25T06:13:22.088Z,989.3
2019-05-25T06:14:22.047Z,989.31
2019-05-25T06:15:22.072Z,989.32
2019-05-25T06:16:22.043Z,989.3
2019-05-25T06:17:22.049Z,989.33
2019-05-25T06:18:22.054Z,989.34
2019-05-25T06:19:22.052Z,989.31
2019-05-25T06:20:22.053Z,989.36
2019-05-25T06:21:22.061Z,989.31
2019-05-25T06:22:22.051Z,989.33
2019-05-25T06:23:22.086Z,989.38
2019-05-25T06:24:22.061Z,989.43
2019-05-25T06:25:22.074Z,989.39
2019-05-25T06:26:22.067Z,989.4
2019-05-25T06:27:27.265Z,989.36
2019-05-25T06:28:22.553Z,989.34
2019-05-25T06:29:22.068Z,989.3
2019-05-25T06:30:22.063Z,989.28
2019-05-25T06:31:22.074Z,989.3
2019-05-25T06:32:22.075Z,989.31
2019-05-25T06:33:22.081Z,989.27
2019-05-25T06:34:25.127Z,989.28
2019-05-25T06:35:22.091Z,989.27
2019-05-25T06:36:22.113Z,989.33
2019-05-25T06:37:22.099Z,989.33
2019-05-25T06:38:22.103Z,989.3
2019-05-25T06:39:22.100Z,989.31
2019-05-25T06:40:22.106Z,989.28
2019-05-25T06:41:22.110Z,989.26
2019-05-25T06:42:22.117Z,989.31
2019-05-25T06:43:22.167Z,989.32
2019-05-25T06:44:22.122Z,989.28
2019-05-25T06:45:28.401Z,989.33
2019-05-25T06:46:22.125Z,989.36
2019-05-25T06:47:22.136Z,989.32
2019-05-25T06:48:22.139Z,989.29
2019-05-25T06:49:22.140Z,989.3
2019-05-25T06:50:22.420Z,989.28
2019-05-25T06:51:22.178Z,989.33
2019-05-25T06:52:22.189Z,989.31
2019-05-25T06:53:22.162Z,989.3
2019-05-25T06:54:22.166Z,989.24
2019-05-25T06:55:22.175Z,989.24
2019-05-25T06:56:22.181Z,989.26
2019-05-25T06:57:22.184Z,989.25
2019-05-25T06:58:22.238Z,989.21
2019-05-25T06:59:22.207Z,989.24
2019-05-25T07:00:22.205Z,989.23
2019-05-25T07:01:23.143Z,989.23
2019-05-25T07:02:22.728Z,989.25
2019-05-25T07:03:22.233Z,989.27
2019-05-25T07:04:22.235Z,989.28
2019-05-25T07:05:22.239Z,989.28
2019-05-25T07:06:22.450Z,989.24
2019-05-25T07:07:22.243Z,989.28
2019-05-25T07:08:22.252Z,989.26
2019-05-25T07:09:22.256Z,989.29
2019-05-25T07:10:22.266Z,989.29
2019-05-25T07:11:22.285Z,989.26
2019-05-25T07:12:22.277Z,989.23
2019-05-25T07:13:22.284Z,989.24
2019-05-25T07:14:22.299Z,989.22
2019-05-25T07:15:22.300Z,989.24
2019-05-25T07:16:22.305Z,989.24
2019-05-25T07:17:25.350Z,989.25
2019-05-25T07:18:22.330Z,989.26
2019-05-25T07:19:22.338Z,989.26
2019-05-25T07:20:22.340Z,989.25
2019-05-25T07:21:22.345Z,989.26
2019-05-25T07:22:22.344Z,989.29
2019-05-25T07:23:22.352Z,989.29
2019-05-25T07:24:22.359Z,989.3
2019-05-25T07:25:22.365Z,989.24
2019-05-25T07:26:22.372Z,989.25
2019-05-25T07:27:22.380Z,989.26
2019-05-25T07:28:28.656Z,989.25
2019-05-25T07:29:22.403Z,989.33
2019-05-25T07:30:22.399Z,989.31
2019-05-25T07:31:22.408Z,989.28
2019-05-25T07:32:22.423Z,989.29
2019-05-25T07:33:22.422Z,989.31
2019-05-25T07:34:22.429Z,989.31
2019-05-25T07:35:22.437Z,989.27
2019-05-25T07:36:22.444Z,989.29
2019-05-25T07:37:22.451Z,989.27
2019-05-25T07:38:22.461Z,989.28
2019-05-25T07:39:22.468Z,989.3
2019-05-25T07:40:22.473Z,989.29
2019-05-25T07:41:22.489Z,989.29
2019-05-25T07:42:22.492Z,989.31
2019-05-25T07:43:22.499Z,989.32
2019-05-25T07:44:22.503Z,989.31
2019-05-25T07:45:22.514Z,989.3
2019-05-25T07:46:22.517Z,989.33
2019-05-25T07:47:22.524Z,989.28
2019-05-25T07:48:22.531Z,989.32
2019-05-25T07:49:23.146Z,989.33
2019-05-25T07:50:22.549Z,989.3
2019-05-25T07:51:22.553Z,989.29
2019-05-25T07:52:22.561Z,989.32
2019-05-25T07:53:22.568Z,989.32
2019-05-25T07:54:22.577Z,989.29
2019-05-25T07:55:22.579Z,989.3
2019-05-25T07:56:22.589Z,989.28
2019-05-25T07:57:22.596Z,989.31
2019-05-25T07:58:22.600Z,989.28
2019-05-25T07:59:22.611Z,989.32
2019-05-25T08:00:25.650Z,989.28
2019-05-25T08:01:22.624Z,989.25
2019-05-25T08:02:22.632Z,989.29
2019-05-25T08:03:22.648Z,989.27
2019-05-25T08:04:22.645Z,989.24
2019-05-25T08:05:22.657Z,989.27
2019-05-25T08:06:22.660Z,989.27
2019-05-25T08:07:22.678Z,989.25
2019-05-25T08:08:22.675Z,989.33
2019-05-25T08:09:22.680Z,989.35
2019-05-25T08:10:22.686Z,989.33
2019-05-25T08:11:22.696Z,989.33
2019-05-25T08:12:22.699Z,989.3
2019-05-25T08:13:22.704Z,989.27
2019-05-25T08:14:22.710Z,989.27
2019-05-25T08:15:22.715Z,989.34
2019-05-25T08:16:22.752Z,989.3
2019-05-25T08:17:22.744Z,989.32
2019-05-25T08:18:22.749Z,989.31
2019-05-25T08:19:22.740Z,989.33
2019-05-25T08:20:22.750Z,989.34
2019-05-25T08:21:22.758Z,989.34
2019-05-25T08:22:22.760Z,989.29
2019-05-25T08:23:22.766Z,989.29
2019-05-25T08:24:22.789Z,989.29
2019-05-25T08:25:22.782Z,989.31
2019-05-25T08:26:22.801Z,989.31
2019-05-25T08:27:22.798Z,989.32
2019-05-25T08:28:32.043Z,989.29
2019-05-25T08:29:22.813Z,989.27
2019-05-25T08:30:22.826Z,989.27
2019-05-25T08:31:22.822Z,989.3
2019-05-25T08:32:23.445Z,989.26
2019-05-25T08:33:22.841Z,989.27
2019-05-25T08:34:22.847Z,989.24
2019-05-25T08:35:22.853Z,989.26
2019-05-25T08:36:22.857Z,989.23
2019-05-25T08:37:22.862Z,989.26
2019-05-25T08:38:22.881Z,989.28
2019-05-25T08:39:22.874Z,989.22
2019-05-25T08:40:22.884Z,989.27
2019-05-25T08:41:22.893Z,989.24
2019-05-25T08:42:22.896Z,989.25
2019-05-25T08:43:25.935Z,989.22
2019-05-25T08:44:22.962Z,989.22
2019-05-25T08:45:25.853Z,989.25
2019-05-25T08:46:22.924Z,989.24
2019-05-25T08:47:22.935Z,989.24
2019-05-25T08:48:22.942Z,989.23
2019-05-25T08:49:22.951Z,989.22
2019-05-25T08:50:37.061Z,989.21
2019-05-25T08:51:22.964Z,989.23
2019-05-25T08:52:22.983Z,989.23
2019-05-25T08:53:37.696Z,989.24
2019-05-25T08:54:22.989Z,989.2
2019-05-25T08:55:22.990Z,989.23
2019-05-25T08:56:23.000Z,989.21
2019-05-25T08:57:23.004Z,989.22
2019-05-25T08:58:23.015Z,989.21
2019-05-25T08:59:23.099Z,989.2
2019-05-25T09:00:23.025Z,989.21
2019-05-25T09:01:23.050Z,989.22
2019-05-25T09:02:23.044Z,989.25
2019-05-25T09:03:23.057Z,989.26
2019-05-25T09:04:25.587Z,989.29
2019-05-25T09:05:23.071Z,989.32
2019-05-25T09:06:23.072Z,989.3
2019-05-25T09:07:23.075Z,989.36
2019-05-25T09:08:23.081Z,989.36
2019-05-25T09:09:23.146Z,989.35
2019-05-25T09:10:23.092Z,989.37
2019-05-25T09:11:23.095Z,989.34
2019-05-25T09:12:23.109Z,989.36
2019-05-25T09:13:23.125Z,989.34
2019-05-25T09:14:23.220Z,989.37
2019-05-25T09:15:24.542Z,989.36
2019-05-25T09:16:23.130Z,989.4
2019-05-25T09:17:23.136Z,989.43
2019-05-25T09:18:23.139Z,989.38
2019-05-25T09:19:23.140Z,989.38
2019-05-25T09:20:23.147Z,989.38
2019-05-25T09:21:23.151Z,989.43
2019-05-25T09:22:23.155Z,989.39
2019-05-25T09:23:23.160Z,989.43
2019-05-25T09:24:23.161Z,989.44
2019-05-25T09:25:23.168Z,989.44
2019-05-25T09:26:26.226Z,989.42
2019-05-25T09:27:23.167Z,989.48
2019-05-25T09:28:23.171Z,989.46
2019-05-25T09:29:23.232Z,989.45
2019-05-25T09:30:23.178Z,989.48
2019-05-25T09:31:23.183Z,989.46
2019-05-25T09:32:23.192Z,989.45
2019-05-25T09:33:23.199Z,989.44
2019-05-25T09:34:23.284Z,989.42
2019-05-25T09:35:23.336Z,989.41
2019-05-25T09:36:23.205Z,989.41
2019-05-25T09:37:23.208Z,989.43
2019-05-25T09:38:23.211Z,989.47
2019-05-25T09:39:23.213Z,989.43
2019-05-25T09:40:23.217Z,989.44
2019-05-25T09:41:23.235Z,989.48
2019-05-25T09:42:23.245Z,989.46
2019-05-25T09:43:23.233Z,989.46
2019-05-25T09:44:23.284Z,989.53
2019-05-25T09:45:23.237Z,989.52
2019-05-25T09:46:23.253Z,989.47
2019-05-25T09:47:23.245Z,989.48
2019-05-25T09:48:23.248Z,989.46
2019-05-25T09:49:23.253Z,989.48
2019-05-25T09:50:23.262Z,989.52
2019-05-25T09:51:23.262Z,989.52
2019-05-25T09:52:23.263Z,989.47
2019-05-25T09:53:23.265Z,989.5
2019-05-25T09:54:23.268Z,989.56
2019-05-25T09:55:23.289Z,989.51
2019-05-25T09:56:23.291Z,989.51
2019-05-25T09:57:23.289Z,989.51
2019-05-25T09:58:24.707Z,989.51
2019-05-25T09:59:23.346Z,989.54
2019-05-25T10:00:23.299Z,989.51
2019-05-25T10:01:23.301Z,989.48
2019-05-25T10:02:23.302Z,989.47
2019-05-25T10:03:23.305Z,989.44
2019-05-25T10:04:23.360Z,989.46
2019-05-25T10:05:23.313Z,989.5
2019-05-25T10:06:23.310Z,989.48
2019-05-25T10:07:23.319Z,989.45
2019-05-25T10:08:23.329Z,989.39
2019-05-25T10:09:27.430Z,989.42
2019-05-25T10:10:23.331Z,989.41
2019-05-25T10:11:23.333Z,989.38
2019-05-25T10:12:23.335Z,989.37
2019-05-25T10:13:23.340Z,989.39
2019-05-25T10:14:23.343Z,989.37
2019-05-25T10:15:23.358Z,989.36
2019-05-25T10:16:23.363Z,989.43
2019-05-25T10:17:23.363Z,989.33
2019-05-25T10:18:23.361Z,989.34
2019-05-25T10:19:23.362Z,989.38
2019-05-25T10:20:23.396Z,989.4
2019-05-25T10:21:23.366Z,989.41
2019-05-25T10:22:23.370Z,989.38
2019-05-25T10:23:23.376Z,989.42
2019-05-25T10:24:23.376Z,989.46
2019-05-25T10:25:23.380Z,989.45
2019-05-25T10:26:23.385Z,989.4
2019-05-25T10:27:23.399Z,989.43
2019-05-25T10:28:23.406Z,989.42
2019-05-25T10:29:36.429Z,989.43
2019-05-25T10:30:23.406Z,989.49
2019-05-25T10:31:23.400Z,989.49
2019-05-25T10:32:23.406Z,989.43
2019-05-25T10:33:23.407Z,989.47
2019-05-25T10:34:23.412Z,989.48
2019-05-25T10:35:23.460Z,989.47
2019-05-25T10:36:23.415Z,989.5
2019-05-25T10:37:23.416Z,989.62
2019-05-25T10:38:23.420Z,989.56
2019-05-25T10:39:23.424Z,989.61
2019-05-25T10:40:23.424Z,989.63
2019-05-25T10:41:24.845Z,989.63
2019-05-25T10:42:23.432Z,989.61
2019-05-25T10:43:23.435Z,989.58
2019-05-25T10:44:23.441Z,989.59
2019-05-25T10:45:23.542Z,989.58
2019-05-25T10:46:23.441Z,989.59
2019-05-25T10:47:23.443Z,989.56
2019-05-25T10:48:23.477Z,989.55
2019-05-25T10:49:23.450Z,989.51
2019-05-25T10:50:23.478Z,989.5
2019-05-25T10:51:23.454Z,989.53
2019-05-25T10:52:26.490Z,989.5
2019-05-25T10:53:23.461Z,989.5
2019-05-25T10:54:23.462Z,989.51
2019-05-25T10:55:23.514Z,989.53
2019-05-25T10:56:23.482Z,989.58
2019-05-25T10:57:23.478Z,989.59
2019-05-25T10:58:23.474Z,989.6
2019-05-25T10:59:23.471Z,989.58
2019-05-25T11:00:23.535Z,989.67
2019-05-25T11:01:23.478Z,989.67
2019-05-25T11:02:23.482Z,989.71
2019-05-25T11:03:23.487Z,989.72
2019-05-25T11:04:23.497Z,989.75
2019-05-25T11:05:23.535Z,989.81
2019-05-25T11:06:23.490Z,989.79
2019-05-25T11:07:23.496Z,989.8
2019-05-25T11:08:23.516Z,989.82
2019-05-25T11:09:23.495Z,989.88
2019-05-25T11:10:23.549Z,989.89
2019-05-25T11:11:23.501Z,989.91
2019-05-25T11:12:25.980Z,989.87
2019-05-25T11:13:23.701Z,989.83
2019-05-25T11:14:23.524Z,989.85
2019-05-25T11:15:23.612Z,989.88
2019-05-25T11:16:23.552Z,989.9
2019-05-25T11:17:23.520Z,989.89
2019-05-25T11:18:23.531Z,989.92
2019-05-25T11:19:24.257Z,989.91
2019-05-25T11:20:23.510Z,989.89
2019-05-25T11:21:23.521Z,989.86
2019-05-25T11:22:23.524Z,989.83
2019-05-25T11:23:23.527Z,989.79
2019-05-25T11:24:26.552Z,989.77
2019-05-25T11:25:23.575Z,989.82
2019-05-25T11:26:23.519Z,989.72
2019-05-25T11:27:23.521Z,989.73
2019-05-25T11:28:23.522Z,989.82
2019-05-25T11:29:23.525Z,989.82
2019-05-25T11:30:23.579Z,989.82
2019-05-25T11:31:23.529Z,989.8
2019-05-25T11:32:23.526Z,989.78
2019-05-25T11:33:23.529Z,989.79
2019-05-25T11:34:23.541Z,989.73
2019-05-25T11:35:27.587Z,989.66
2019-05-25T11:36:23.533Z,989.71
2019-05-25T11:37:23.537Z,989.63
2019-05-25T11:38:23.540Z,989.58
2019-05-25T11:39:23.538Z,989.56
2019-05-25T11:40:23.542Z,989.49
2019-05-25T11:41:23.542Z,989.45
2019-05-25T11:42:23.545Z,989.44
2019-05-25T11:43:23.548Z,989.41
2019-05-25T11:44:23.551Z,989.41
2019-05-25T11:45:23.557Z,989.35
2019-05-25T11:46:23.556Z,989.32
2019-05-25T11:47:23.556Z,989.26
2019-05-25T11:48:23.569Z,989.28
2019-05-25T11:49:23.566Z,989.24
2019-05-25T11:50:23.563Z,989.25
2019-05-25T11:51:23.568Z,989.22
2019-05-25T11:52:23.569Z,989.19
2019-05-25T11:53:23.570Z,989.17
2019-05-25T11:54:23.578Z,989.18
2019-05-25T11:55:23.579Z,989.15
2019-05-25T11:56:24.191Z,989.11
2019-05-25T11:57:23.585Z,989.14
2019-05-25T11:58:23.590Z,989.16
2019-05-25T11:59:23.592Z,989.12
2019-05-25T12:00:25.634Z,989.07
2019-05-25T12:01:23.610Z,989.04
2019-05-25T12:02:23.609Z,989.1
2019-05-25T12:03:23.611Z,989.06
2019-05-25T12:04:23.615Z,989.02
2019-05-25T12:05:23.636Z,989.01
2019-05-25T12:06:23.634Z,989.04
2019-05-25T12:07:26.660Z,989.02
2019-05-25T12:08:23.695Z,989.04
2019-05-25T12:09:23.630Z,989.03
2019-05-25T12:10:23.635Z,989
2019-05-25T12:11:23.639Z,988.94
2019-05-25T12:12:23.651Z,988.91
2019-05-25T12:13:23.651Z,988.9
2019-05-25T12:14:23.668Z,988.86
2019-05-25T12:15:23.660Z,988.86
2019-05-25T12:16:23.660Z,988.93
2019-05-25T12:17:23.697Z,988.87
2019-05-25T12:18:23.673Z,988.8
2019-05-25T12:19:23.682Z,988.86
2019-05-25T12:20:23.677Z,988.83
2019-05-25T12:21:23.683Z,988.82
2019-05-25T12:22:23.682Z,988.79
2019-05-25T12:23:23.703Z,988.73
2019-05-25T12:24:23.704Z,988.75
2019-05-25T12:25:23.705Z,988.77
2019-05-25T12:26:23.706Z,988.76
2019-05-25T12:27:23.709Z,988.75
2019-05-25T12:28:23.707Z,988.72
2019-05-25T12:29:23.708Z,988.76
2019-05-25T12:30:37.776Z,988.73